sensor_id;sensor_type;location;lat;lon;timestamp;P1;durP1;ratioP1;P2;durP2;ratioP2
7454;SDS011;3769;51.208;4.454;2023-09-30T00:01:36;26.7;;;24.9;;
7454;SDS011;3769;51.208;4.454;2023-09-30T00:06:36;32.2;;;29.9;;
7454;SDS011;3769;51.208;4.454;2023-09-30T00:11:36;36.4;;;33.8;;
7454;SDS011;3769;51.208;4.454;2023-09-30T00:16:36;35;;;32.5;;
7454;SDS011;3769;51.208;4.454;2023-09-30T00:21:36;36.8;;;34.2;;
7454;SDS011;3769;51.208;4.454;2023-09-30T00:26:36;37.7;;;35;;
7454;SDS011;3769;51.208;4.454;2023-09-30T00:31:36;36.2;;;33.8;;
7454;SDS011;3769;51.208;4.454;2023-09-30T00:36:36;42;;;39.1;;
7454;SDS011;3769;51.208;4.454;2023-09-30T00:41:38;36.1;;;33.3;;
7454;SDS011;3769;51.208;4.454;2023-09-30T00:46:37;122;;;115.5;;
7454;SDS011;3769;51.208;4.454;2023-09-30T00:51:36;30.4;;;27.7;;
7454;SDS011;3769;51.208;4.454;2023-09-30T00:56:36;74.8;;;70.3;;
7454;SDS011;3769;51.208;4.454;2023-09-30T01:01:36;25;;;23.3;;
7454;SDS011;3769;51.208;4.454;2023-09-30T01:06:36;22.8;;;21.1;;
7454;SDS011;3769;51.208;4.454;2023-09-30T01:11:36;21.4;;;19.3;;
7454;SDS011;3769;51.208;4.454;2023-09-30T01:16:36;20;;;18.4;;
7454;SDS011;3769;51.208;4.454;2023-09-30T01:21:36;20.3;;;18.7;;
7454;SDS011;3769;51.208;4.454;2023-09-30T01:26:36;18.9;;;17.5;;
7454;SDS011;3769;51.208;4.454;2023-09-30T01:31:36;21.6;;;19.9;;
7454;SDS011;3769;51.208;4.454;2023-09-30T01:36:36;19.8;;;18.4;;
7454;SDS011;3769;51.208;4.454;2023-09-30T01:41:37;24.3;;;22.1;;
7454;SDS011;3769;51.208;4.454;2023-09-30T01:46:36;26.1;;;24.2;;
7454;SDS011;3769;51.208;4.454;2023-09-30T01:51:36;32.8;;;30.7;;
7454;SDS011;3769;51.208;4.454;2023-09-30T01:56:36;35.5;;;32.9;;
7454;SDS011;3769;51.208;4.454;2023-09-30T02:01:36;36.8;;;34.3;;
7454;SDS011;3769;51.208;4.454;2023-09-30T02:06:36;36.2;;;33.7;;
7454;SDS011;3769;51.208;4.454;2023-09-30T02:11:36;33.8;;;31.4;;
7454;SDS011;3769;51.208;4.454;2023-09-30T02:16:37;31.7;;;29.2;;
7454;SDS011;3769;51.208;4.454;2023-09-30T02:21:36;29.4;;;27;;
7454;SDS011;3769;51.208;4.454;2023-09-30T02:26:36;27.4;;;25.4;;
7454;SDS011;3769;51.208;4.454;2023-09-30T02:31:36;25;;;23;;
7454;SDS011;3769;51.208;4.454;2023-09-30T02:36:36;24;;;22;;
7454;SDS011;3769;51.208;4.454;2023-09-30T02:41:36;22.8;;;20.9;;
7454;SDS011;3769;51.208;4.454;2023-09-30T02:46:36;22;;;20;;
7454;SDS011;3769;51.208;4.454;2023-09-30T02:51:36;22;;;20.1;;
7454;SDS011;3769;51.208;4.454;2023-09-30T02:56:36;21.7;;;19.9;;
7454;SDS011;3769;51.208;4.454;2023-09-30T03:01:36;23;;;20.7;;
7454;SDS011;3769;51.208;4.454;2023-09-30T03:06:36;22.1;;;20.3;;
7454;SDS011;3769;51.208;4.454;2023-09-30T03:11:36;21.7;;;19.7;;
7454;SDS011;3769;51.208;4.454;2023-09-30T03:16:36;21.9;;;20;;
7454;SDS011;3769;51.208;4.454;2023-09-30T03:21:36;21.9;;;20.1;;
7454;SDS011;3769;51.208;4.454;2023-09-30T03:26:36;22.5;;;20.2;;
7454;SDS011;3769;51.208;4.454;2023-09-30T03:31:36;21.9;;;20.1;;
7454;SDS011;3769;51.208;4.454;2023-09-30T03:36:36;21.6;;;19.7;;
7454;SDS011;3769;51.208;4.454;2023-09-30T03:41:36;20.9;;;19.1;;
7454;SDS011;3769;51.208;4.454;2023-09-30T03:46:36;21.5;;;19.7;;
7454;SDS011;3769;51.208;4.454;2023-09-30T03:51:36;22;;;19.8;;
7454;SDS011;3769;51.208;4.454;2023-09-30T03:56:36;21.4;;;19.7;;
7454;SDS011;3769;51.208;4.454;2023-09-30T04:01:36;22.9;;;21;;
7454;SDS011;3769;51.208;4.454;2023-09-30T04:06:36;24.1;;;21.9;;
7454;SDS011;3769;51.208;4.454;2023-09-30T04:11:36;22.1;;;20.2;;
7454;SDS011;3769;51.208;4.454;2023-09-30T04:16:36;22.7;;;20.6;;
7454;SDS011;3769;51.208;4.454;2023-09-30T04:21:36;22.9;;;20.7;;
7454;SDS011;3769;51.208;4.454;2023-09-30T04:26:36;23.5;;;21.4;;
7454;SDS011;3769;51.208;4.454;2023-09-30T04:31:37;23.9;;;21.7;;
7454;SDS011;3769;51.208;4.454;2023-09-30T04:36:36;23.5;;;21.4;;
7454;SDS011;3769;51.208;4.454;2023-09-30T04:41:36;24.1;;;21.8;;
7454;SDS011;3769;51.208;4.454;2023-09-30T04:46:36;25.9;;;23.3;;
7454;SDS011;3769;51.208;4.454;2023-09-30T04:51:36;25;;;22.7;;
7454;SDS011;3769;51.208;4.454;2023-09-30T04:56:36;24.5;;;22.4;;
7454;SDS011;3769;51.208;4.454;2023-09-30T05:01:36;24.1;;;21.9;;
7454;SDS011;3769;51.208;4.454;2023-09-30T05:06:36;25.1;;;22.9;;
7454;SDS011;3769;51.208;4.454;2023-09-30T05:11:36;25.4;;;22.9;;
7454;SDS011;3769;51.208;4.454;2023-09-30T05:16:36;25.5;;;23;;
7454;SDS011;3769;51.208;4.454;2023-09-30T05:21:36;25;;;22.8;;
7454;SDS011;3769;51.208;4.454;2023-09-30T05:26:36;25.3;;;22.9;;
7454;SDS011;3769;51.208;4.454;2023-09-30T05:31:36;25.9;;;23.2;;
7454;SDS011;3769;51.208;4.454;2023-09-30T05:36:36;26;;;23.5;;
7454;SDS011;3769;51.208;4.454;2023-09-30T05:41:36;26.7;;;24.2;;
7454;SDS011;3769;51.208;4.454;2023-09-30T05:46:36;26.6;;;23.9;;
7454;SDS011;3769;51.208;4.454;2023-09-30T05:51:36;26.8;;;24.2;;
7454;SDS011;3769;51.208;4.454;2023-09-30T05:56:36;26.9;;;24.1;;
7454;SDS011;3769;51.208;4.454;2023-09-30T06:01:36;26.4;;;24;;
7454;SDS011;3769;51.208;4.454;2023-09-30T06:06:36;32.5;;;25.4;;
7454;SDS011;3769;51.208;4.454;2023-09-30T06:11:36;26.3;;;23.5;;
7454;SDS011;3769;51.208;4.454;2023-09-30T06:16:36;26.9;;;24.1;;
7454;SDS011;3769;51.208;4.454;2023-09-30T06:21:36;28.3;;;25.2;;
7454;SDS011;3769;51.208;4.454;2023-09-30T06:26:36;26.5;;;23.9;;
7454;SDS011;3769;51.208;4.454;2023-09-30T06:31:36;26.6;;;23.8;;
7454;SDS011;3769;51.208;4.454;2023-09-30T06:36:36;26.6;;;24.1;;
7454;SDS011;3769;51.208;4.454;2023-09-30T06:41:36;28.2;;;25.2;;
7454;SDS011;3769;51.208;4.454;2023-09-30T06:46:36;28;;;25.2;;
7454;SDS011;3769;51.208;4.454;2023-09-30T06:51:36;27.6;;;24.9;;
7454;SDS011;3769;51.208;4.454;2023-09-30T06:56:36;29.8;;;27;;
7454;SDS011;3769;51.208;4.454;2023-09-30T07:01:36;30.2;;;27.1;;
7454;SDS011;3769;51.208;4.454;2023-09-30T07:06:36;35.4;;;27.2;;
7454;SDS011;3769;51.208;4.454;2023-09-30T07:11:36;29.6;;;26.5;;
7454;SDS011;3769;51.208;4.454;2023-09-30T07:16:36;28.8;;;25.6;;
7454;SDS011;3769;51.208;4.454;2023-09-30T07:21:36;27.7;;;24.7;;
7454;SDS011;3769;51.208;4.454;2023-09-30T07:26:36;27.9;;;24.7;;
7454;SDS011;3769;51.208;4.454;2023-09-30T07:31:36;30.6;;;26;;
7454;SDS011;3769;51.208;4.454;2023-09-30T07:36:36;29.7;;;25.2;;
7454;SDS011;3769;51.208;4.454;2023-09-30T07:41:36;29.9;;;26.4;;
7454;SDS011;3769;51.208;4.454;2023-09-30T07:46:36;28.4;;;25.4;;
7454;SDS011;3769;51.208;4.454;2023-09-30T07:51:36;29.2;;;26.1;;
7454;SDS011;3769;51.208;4.454;2023-09-30T07:56:36;28.1;;;24.8;;
7454;SDS011;3769;51.208;4.454;2023-09-30T08:01:36;33.3;;;24.6;;
7454;SDS011;3769;51.208;4.454;2023-09-30T08:06:36;32.5;;;23;;
7454;SDS011;3769;51.208;4.454;2023-09-30T08:11:36;30.6;;;22.7;;
7454;SDS011;3769;51.208;4.454;2023-09-30T08:16:36;30.2;;;22;;
7454;SDS011;3769;51.208;4.454;2023-09-30T08:21:36;28.3;;;21.3;;
7454;SDS011;3769;51.208;4.454;2023-09-30T08:26:36;24.7;;;21.2;;
7454;SDS011;3769;51.208;4.454;2023-09-30T08:31:36;29;;;21.1;;
7454;SDS011;3769;51.208;4.454;2023-09-30T08:36:36;31.7;;;21.5;;
7454;SDS011;3769;51.208;4.454;2023-09-30T08:41:36;33;;;21;;
7454;SDS011;3769;51.208;4.454;2023-09-30T08:46:36;28.3;;;21.5;;
7454;SDS011;3769;51.208;4.454;2023-09-30T08:51:36;29.6;;;21.8;;
7454;SDS011;3769;51.208;4.454;2023-09-30T08:56:36;36.5;;;22.1;;
7454;SDS011;3769;51.208;4.454;2023-09-30T09:01:36;27.3;;;21;;
7454;SDS011;3769;51.208;4.454;2023-09-30T09:06:36;28.4;;;22.1;;
7454;SDS011;3769;51.208;4.454;2023-09-30T09:11:37;30.7;;;22.1;;
7454;SDS011;3769;51.208;4.454;2023-09-30T09:16:36;28.8;;;21.4;;
7454;SDS011;3769;51.208;4.454;2023-09-30T09:21:36;25.4;;;21.9;;
7454;SDS011;3769;51.208;4.454;2023-09-30T09:26:36;31;;;21.1;;
7454;SDS011;3769;51.208;4.454;2023-09-30T09:31:36;31.3;;;21.3;;
7454;SDS011;3769;51.208;4.454;2023-09-30T09:36:40;28.6;;;20.8;;
7454;SDS011;3769;51.208;4.454;2023-09-30T09:41:48;31.2;;;20.2;;
7454;SDS011;3769;51.208;4.454;2023-09-30T09:46:36;27.4;;;20.5;;
7454;SDS011;3769;51.208;4.454;2023-09-30T09:51:36;23.9;;;19.9;;
7454;SDS011;3769;51.208;4.454;2023-09-30T09:56:36;23.8;;;20;;
7454;SDS011;3769;51.208;4.454;2023-09-30T10:01:36;26;;;20.4;;
7454;SDS011;3769;51.208;4.454;2023-09-30T10:06:36;25.9;;;20;;
7454;SDS011;3769;51.208;4.454;2023-09-30T10:11:38;23.1;;;19.3;;
7454;SDS011;3769;51.208;4.454;2023-09-30T10:21:36;24.3;;;21;;
7454;SDS011;3769;51.208;4.454;2023-09-30T10:26:36;24.9;;;21.7;;
7454;SDS011;3769;51.208;4.454;2023-09-30T10:31:49;26.2;;;22.8;;
7454;SDS011;3769;51.208;4.454;2023-09-30T10:36:37;30.2;;;27.1;;
7454;SDS011;3769;51.208;4.454;2023-09-30T10:46:36;34.4;;;31.1;;
7454;SDS011;3769;51.208;4.454;2023-09-30T10:51:37;51.6;;;47.6;;
7454;SDS011;3769;51.208;4.454;2023-09-30T10:56:36;52.6;;;48.9;;
7454;SDS011;3769;51.208;4.454;2023-09-30T11:01:36;56.2;;;51.9;;
7454;SDS011;3769;51.208;4.454;2023-09-30T11:06:39;56.4;;;52.3;;
7454;SDS011;3769;51.208;4.454;2023-09-30T11:11:37;58;;;53.6;;
7454;SDS011;3769;51.208;4.454;2023-09-30T11:16:40;51.5;;;47.8;;
7454;SDS011;3769;51.208;4.454;2023-09-30T11:21:37;31.9;;;29;;
7454;SDS011;3769;51.208;4.454;2023-09-30T11:26:37;19.6;;;17.8;;
7454;SDS011;3769;51.208;4.454;2023-09-30T11:31:38;22.4;;;20;;
7454;SDS011;3769;51.208;4.454;2023-09-30T11:36:38;21.1;;;19;;
7454;SDS011;3769;51.208;4.454;2023-09-30T11:41:37;19.8;;;17.7;;
7454;SDS011;3769;51.208;4.454;2023-09-30T11:46:53;21.2;;;18.3;;
7454;SDS011;3769;51.208;4.454;2023-09-30T11:51:43;16.9;;;15.3;;
7454;SDS011;3769;51.208;4.454;2023-09-30T11:56:36;17.2;;;15.6;;
7454;SDS011;3769;51.208;4.454;2023-09-30T12:01:37;15.1;;;13.9;;
7454;SDS011;3769;51.208;4.454;2023-09-30T12:06:36;17.7;;;16.1;;
7454;SDS011;3769;51.208;4.454;2023-09-30T12:11:36;19.6;;;17.8;;
7454;SDS011;3769;51.208;4.454;2023-09-30T12:16:36;31.4;;;28.4;;
7454;SDS011;3769;51.208;4.454;2023-09-30T12:21:36;27.7;;;25.7;;
7454;SDS011;3769;51.208;4.454;2023-09-30T12:26:36;26.6;;;24.6;;
7454;SDS011;3769;51.208;4.454;2023-09-30T12:31:36;26.8;;;24.4;;
7454;SDS011;3769;51.208;4.454;2023-09-30T12:36:36;22.4;;;20.5;;
7454;SDS011;3769;51.208;4.454;2023-09-30T12:41:37;18.7;;;17;;
7454;SDS011;3769;51.208;4.454;2023-09-30T12:46:36;24.6;;;22;;
7454;SDS011;3769;51.208;4.454;2023-09-30T12:51:36;18.4;;;16.6;;
7454;SDS011;3769;51.208;4.454;2023-09-30T12:56:36;17.1;;;15.7;;
7454;SDS011;3769;51.208;4.454;2023-09-30T13:01:36;16.5;;;15;;
7454;SDS011;3769;51.208;4.454;2023-09-30T13:06:37;48.4;;;41.9;;
7454;SDS011;3769;51.208;4.454;2023-09-30T13:11:36;17;;;15.4;;
7454;SDS011;3769;51.208;4.454;2023-09-30T13:16:36;27.9;;;24.9;;
7454;SDS011;3769;51.208;4.454;2023-09-30T13:21:36;19.8;;;17.8;;
7454;SDS011;3769;51.208;4.454;2023-09-30T13:26:36;16.2;;;14.5;;
7454;SDS011;3769;51.208;4.454;2023-09-30T13:31:36;15.2;;;13.6;;
7454;SDS011;3769;51.208;4.454;2023-09-30T13:36:36;22.7;;;20.4;;
7454;SDS011;3769;51.208;4.454;2023-09-30T13:41:36;16.6;;;15;;
7454;SDS011;3769;51.208;4.454;2023-09-30T13:46:36;14.9;;;13.5;;
7454;SDS011;3769;51.208;4.454;2023-09-30T13:51:36;19.3;;;13.3;;
7454;SDS011;3769;51.208;4.454;2023-09-30T13:56:36;13.6;;;11;;
7454;SDS011;3769;51.208;4.454;2023-09-30T14:01:36;12.7;;;11.4;;
7454;SDS011;3769;51.208;4.454;2023-09-30T14:06:36;12.8;;;11.5;;
7454;SDS011;3769;51.208;4.454;2023-09-30T14:11:36;13.4;;;11.2;;
7454;SDS011;3769;51.208;4.454;2023-09-30T14:16:36;12.9;;;11.6;;
7454;SDS011;3769;51.208;4.454;2023-09-30T14:21:36;12.5;;;11.2;;
7454;SDS011;3769;51.208;4.454;2023-09-30T14:26:36;16.3;;;13.1;;
7454;SDS011;3769;51.208;4.454;2023-09-30T14:31:36;12.8;;;11.5;;
7454;SDS011;3769;51.208;4.454;2023-09-30T14:36:36;15;;;12.3;;
7454;SDS011;3769;51.208;4.454;2023-09-30T14:41:36;13.3;;;11.9;;
7454;SDS011;3769;51.208;4.454;2023-09-30T14:46:36;13;;;11.9;;
7454;SDS011;3769;51.208;4.454;2023-09-30T14:51:36;13.2;;;12.1;;
7454;SDS011;3769;51.208;4.454;2023-09-30T14:56:36;13.3;;;12;;
7454;SDS011;3769;51.208;4.454;2023-09-30T15:01:36;14.1;;;12.3;;
7454;SDS011;3769;51.208;4.454;2023-09-30T15:06:36;13.6;;;12.2;;
7454;SDS011;3769;51.208;4.454;2023-09-30T15:11:37;13.5;;;12.2;;
7454;SDS011;3769;51.208;4.454;2023-09-30T15:16:36;13.8;;;12.3;;
7454;SDS011;3769;51.208;4.454;2023-09-30T15:21:36;13.9;;;12.5;;
7454;SDS011;3769;51.208;4.454;2023-09-30T15:26:36;14.2;;;12.7;;
7454;SDS011;3769;51.208;4.454;2023-09-30T15:31:36;14.9;;;13.4;;
7454;SDS011;3769;51.208;4.454;2023-09-30T15:36:36;14.4;;;13.1;;
7454;SDS011;3769;51.208;4.454;2023-09-30T15:41:36;14;;;12.7;;
7454;SDS011;3769;51.208;4.454;2023-09-30T15:46:36;13.8;;;12.6;;
7454;SDS011;3769;51.208;4.454;2023-09-30T15:51:36;13.2;;;12;;
7454;SDS011;3769;51.208;4.454;2023-09-30T15:56:36;14.8;;;13.3;;
7454;SDS011;3769;51.208;4.454;2023-09-30T16:01:36;13.5;;;12.3;;
7454;SDS011;3769;51.208;4.454;2023-09-30T16:06:38;13.8;;;12.7;;
7454;SDS011;3769;51.208;4.454;2023-09-30T16:11:36;59.3;;;55.9;;
7454;SDS011;3769;51.208;4.454;2023-09-30T16:16:36;42.5;;;39.7;;
7454;SDS011;3769;51.208;4.454;2023-09-30T16:21:36;40.1;;;37.6;;
7454;SDS011;3769;51.208;4.454;2023-09-30T16:26:36;36.2;;;34.2;;
7454;SDS011;3769;51.208;4.454;2023-09-30T16:31:36;34.5;;;32.4;;
7454;SDS011;3769;51.208;4.454;2023-09-30T16:36:36;42;;;39.3;;
7454;SDS011;3769;51.208;4.454;2023-09-30T16:41:36;40.3;;;37.6;;
7454;SDS011;3769;51.208;4.454;2023-09-30T16:46:36;37.8;;;35.3;;
7454;SDS011;3769;51.208;4.454;2023-09-30T16:51:36;37.6;;;35.4;;
7454;SDS011;3769;51.208;4.454;2023-09-30T16:56:36;41.8;;;39.2;;
7454;SDS011;3769;51.208;4.454;2023-09-30T17:01:36;47.6;;;44.7;;
7454;SDS011;3769;51.208;4.454;2023-09-30T17:06:36;52.9;;;49.9;;
7454;SDS011;3769;51.208;4.454;2023-09-30T17:11:36;45.7;;;42.7;;
7454;SDS011;3769;51.208;4.454;2023-09-30T17:16:36;47.1;;;44;;
7454;SDS011;3769;51.208;4.454;2023-09-30T17:21:37;56.1;;;53;;
7454;SDS011;3769;51.208;4.454;2023-09-30T17:26:36;59;;;55.5;;
7454;SDS011;3769;51.208;4.454;2023-09-30T17:31:36;56.1;;;52.5;;
7454;SDS011;3769;51.208;4.454;2023-09-30T17:36:36;57.5;;;53.9;;
7454;SDS011;3769;51.208;4.454;2023-09-30T17:41:36;55.6;;;52.3;;
7454;SDS011;3769;51.208;4.454;2023-09-30T17:46:36;57.3;;;53.9;;
7454;SDS011;3769;51.208;4.454;2023-09-30T17:51:36;53.1;;;49.5;;
7454;SDS011;3769;51.208;4.454;2023-09-30T17:56:36;42.7;;;40.1;;
7454;SDS011;3769;51.208;4.454;2023-09-30T18:01:36;39;;;36.4;;
7454;SDS011;3769;51.208;4.454;2023-09-30T18:06:36;38.4;;;35.8;;
7454;SDS011;3769;51.208;4.454;2023-09-30T18:11:36;40.2;;;37.4;;
7454;SDS011;3769;51.208;4.454;2023-09-30T18:16:36;42.2;;;39.1;;
7454;SDS011;3769;51.208;4.454;2023-09-30T18:21:36;41.6;;;38.6;;
7454;SDS011;3769;51.208;4.454;2023-09-30T18:26:36;40.7;;;37.9;;
7454;SDS011;3769;51.208;4.454;2023-09-30T18:31:36;39.4;;;36.6;;
7454;SDS011;3769;51.208;4.454;2023-09-30T18:36:36;39;;;36.2;;
7454;SDS011;3769;51.208;4.454;2023-09-30T18:41:36;39.2;;;36.5;;
7454;SDS011;3769;51.208;4.454;2023-09-30T18:46:36;37.2;;;34.4;;
7454;SDS011;3769;51.208;4.454;2023-09-30T18:51:36;38.1;;;35.3;;
7454;SDS011;3769;51.208;4.454;2023-09-30T18:56:36;40.1;;;37.2;;
7454;SDS011;3769;51.208;4.454;2023-09-30T19:01:36;45.1;;;42.1;;
7454;SDS011;3769;51.208;4.454;2023-09-30T19:06:36;45.7;;;42.4;;
7454;SDS011;3769;51.208;4.454;2023-09-30T19:11:37;45.3;;;41.9;;
7454;SDS011;3769;51.208;4.454;2023-09-30T19:16:36;44.1;;;40.9;;
7454;SDS011;3769;51.208;4.454;2023-09-30T19:21:37;43.8;;;40.8;;
7454;SDS011;3769;51.208;4.454;2023-09-30T19:26:36;41.6;;;38.6;;
7454;SDS011;3769;51.208;4.454;2023-09-30T19:31:36;39.6;;;36.7;;
7454;SDS011;3769;51.208;4.454;2023-09-30T19:36:37;50.9;;;47.3;;
7454;SDS011;3769;51.208;4.454;2023-09-30T19:41:37;67;;;62.7;;
7454;SDS011;3769;51.208;4.454;2023-09-30T19:46:37;39.3;;;36.7;;
7454;SDS011;3769;51.208;4.454;2023-09-30T19:51:36;41.9;;;39.1;;
7454;SDS011;3769;51.208;4.454;2023-09-30T19:56:36;90.9;;;85.6;;
7454;SDS011;3769;51.208;4.454;2023-09-30T20:01:36;44.9;;;42;;
7454;SDS011;3769;51.208;4.454;2023-09-30T20:06:37;39.3;;;36.7;;
7454;SDS011;3769;51.208;4.454;2023-09-30T20:11:36;39.5;;;36.8;;
7454;SDS011;3769;51.208;4.454;2023-09-30T20:16:36;43.7;;;40.8;;
7454;SDS011;3769;51.208;4.454;2023-09-30T20:21:36;46.4;;;43.2;;
7454;SDS011;3769;51.208;4.454;2023-09-30T20:26:36;47.6;;;44.3;;
7454;SDS011;3769;51.208;4.454;2023-09-30T20:31:36;44.6;;;41.3;;
7454;SDS011;3769;51.208;4.454;2023-09-30T20:36:36;47.6;;;44;;
7454;SDS011;3769;51.208;4.454;2023-09-30T20:41:37;46.2;;;42.9;;
7454;SDS011;3769;51.208;4.454;2023-09-30T20:46:36;46.4;;;43.4;;
7454;SDS011;3769;51.208;4.454;2023-09-30T20:51:36;43.6;;;40.6;;
7454;SDS011;3769;51.208;4.454;2023-09-30T20:56:36;44.1;;;40.8;;
7454;SDS011;3769;51.208;4.454;2023-09-30T21:01:36;41.6;;;38.9;;
7454;SDS011;3769;51.208;4.454;2023-09-30T21:06:37;39;;;36.2;;
7454;SDS011;3769;51.208;4.454;2023-09-30T21:11:36;38;;;35.5;;
7454;SDS011;3769;51.208;4.454;2023-09-30T21:16:36;36.2;;;33.9;;
7454;SDS011;3769;51.208;4.454;2023-09-30T21:21:36;36.3;;;33.7;;
7454;SDS011;3769;51.208;4.454;2023-09-30T21:26:36;35.6;;;32.9;;
7454;SDS011;3769;51.208;4.454;2023-09-30T21:31:36;33.9;;;31.5;;
7454;SDS011;3769;51.208;4.454;2023-09-30T21:36:36;34.7;;;32;;
7454;SDS011;3769;51.208;4.454;2023-09-30T21:41:36;32.4;;;29.7;;
7454;SDS011;3769;51.208;4.454;2023-09-30T21:46:36;30.7;;;28.3;;
7454;SDS011;3769;51.208;4.454;2023-09-30T21:51:36;30.2;;;28.2;;
7454;SDS011;3769;51.208;4.454;2023-09-30T21:56:36;31;;;28.4;;
7454;SDS011;3769;51.208;4.454;2023-09-30T22:01:36;29.2;;;27.2;;
7454;SDS011;3769;51.208;4.454;2023-09-30T22:06:36;29;;;26.7;;
7454;SDS011;3769;51.208;4.454;2023-09-30T22:11:36;28.2;;;26.1;;
7454;SDS011;3769;51.208;4.454;2023-09-30T22:16:36;28;;;25.8;;
7454;SDS011;3769;51.208;4.454;2023-09-30T22:21:36;76.4;;;71.8;;
7454;SDS011;3769;51.208;4.454;2023-09-30T22:26:36;32.5;;;30;;
7454;SDS011;3769;51.208;4.454;2023-09-30T22:31:37;33.2;;;30.6;;
7454;SDS011;3769;51.208;4.454;2023-09-30T22:36:36;34.4;;;32;;
7454;SDS011;3769;51.208;4.454;2023-09-30T22:41:36;32.6;;;30.3;;
7454;SDS011;3769;51.208;4.454;2023-09-30T22:46:36;32.8;;;30.4;;
7454;SDS011;3769;51.208;4.454;2023-09-30T22:51:36;34;;;31.4;;
7454;SDS011;3769;51.208;4.454;2023-09-30T22:56:36;32;;;29.8;;
7454;SDS011;3769;51.208;4.454;2023-09-30T23:01:36;32.6;;;29.7;;
7454;SDS011;3769;51.208;4.454;2023-09-30T23:06:36;30.9;;;28.6;;
7454;SDS011;3769;51.208;4.454;2023-09-30T23:11:37;30.7;;;28.5;;
7454;SDS011;3769;51.208;4.454;2023-09-30T23:16:36;33.4;;;30.9;;
7454;SDS011;3769;51.208;4.454;2023-09-30T23:21:36;32.8;;;30.1;;
7454;SDS011;3769;51.208;4.454;2023-09-30T23:26:36;78.8;;;74;;
7454;SDS011;3769;51.208;4.454;2023-09-30T23:31:36;43.9;;;40.8;;
7454;SDS011;3769;51.208;4.454;2023-09-30T23:36:37;86.7;;;81.8;;
7454;SDS011;3769;51.208;4.454;2023-09-30T23:41:37;36.3;;;33.9;;
7454;SDS011;3769;51.208;4.454;2023-09-30T23:46:37;32.3;;;30.2;;
7454;SDS011;3769;51.208;4.454;2023-09-30T23:51:36;30.5;;;28.1;;
7454;SDS011;3769;51.208;4.454;2023-09-30T23:56:37;29.9;;;27.3;;
